createdAt,value
2024-03-16T00:02:19.460Z,99302.91
2024-03-16T00:04:46.215Z,99298.47
2024-03-16T00:07:14.178Z,99296.69
2024-03-16T00:09:42.028Z,99296.88
2024-03-16T00:12:09.820Z,99285.56
2024-03-16T00:14:37.554Z,99290.84
2024-03-16T00:17:05.988Z,99289.88
2024-03-16T00:19:33.804Z,99294.22
2024-03-16T00:22:02.077Z,99293.47
2024-03-16T00:24:31.190Z,99301.19
2024-03-16T00:26:59.550Z,99291.22
2024-03-16T00:29:27.394Z,99299.59
2024-03-16T00:31:55.692Z,99300.25
2024-03-16T00:34:24.806Z,99287.78
2024-03-16T00:36:53.238Z,99292.22
2024-03-16T00:39:24.588Z,99287.16
2024-03-16T00:41:52.764Z,99291.59
2024-03-16T00:44:20.627Z,99301.75
2024-03-16T00:46:48.614Z,99304.09
2024-03-16T00:49:16.405Z,99297.78
2024-03-16T00:51:44.207Z,99303.06
2024-03-16T00:54:12.796Z,99299.66
2024-03-16T00:56:40.680Z,99295.69
2024-03-16T00:59:09.046Z,99296.66
2024-03-16T01:01:36.816Z,99301.19
2024-03-16T01:04:05.327Z,99300.44
2024-03-16T01:06:33.121Z,99298.66
2024-03-16T01:09:01.090Z,99296.88
2024-03-16T01:11:28.939Z,99292.34
2024-03-16T01:13:56.727Z,99294.56
2024-03-16T01:16:24.516Z,99294.66
2024-03-16T01:18:52.300Z,99297.41
2024-03-16T01:21:20.140Z,99289.09
2024-03-16T01:23:47.991Z,99303.16
2024-03-16T01:26:15.806Z,99302.59
2024-03-16T01:28:43.555Z,99297.22
2024-03-16T01:31:14.458Z,99297.13
2024-03-16T01:33:42.886Z,99300.97
2024-03-16T01:36:10.695Z,99306.25
2024-03-16T01:38:38.451Z,99307.84
2024-03-16T01:41:06.656Z,99300.78
2024-03-16T01:43:34.677Z,99308.69
2024-03-16T01:46:02.453Z,99299.09
2024-03-16T01:48:30.567Z,99297.47
2024-03-16T01:50:58.311Z,99302.00
2024-03-16T01:53:26.116Z,99309.00
2024-03-16T01:55:53.876Z,99309.09
2024-03-16T01:58:21.658Z,99309.38
2024-03-16T02:00:49.592Z,99304.09
2024-03-16T02:03:17.407Z,99306.81
2024-03-16T02:05:47.317Z,99301.25
2024-03-16T02:08:16.814Z,99305.41
2024-03-16T02:10:44.590Z,99304.84
2024-03-16T02:13:12.575Z,99304.75
2024-03-16T02:15:40.556Z,99306.91
2024-03-16T02:18:10.856Z,99305.97
2024-03-16T02:20:38.756Z,99310.41
2024-03-16T02:23:06.539Z,99311.63
2024-03-16T02:25:34.464Z,99308.72
2024-03-16T02:28:02.268Z,99306.06
2024-03-16T02:30:30.110Z,99309.28
2024-03-16T02:32:57.893Z,99312.47
2024-03-16T02:35:25.677Z,99312.84
2024-03-16T02:37:53.507Z,99317.09
2024-03-16T02:40:22.026Z,99326.53
2024-03-16T02:42:49.785Z,99325.69
2024-03-16T02:45:17.670Z,99327.19
2024-03-16T02:47:45.533Z,99332.28
2024-03-16T02:50:13.947Z,99336.25
2024-03-16T02:52:41.694Z,99345.66
2024-03-16T02:55:10.449Z,99349.94
2024-03-16T02:57:38.344Z,99343.81
2024-03-16T03:00:12.339Z,99350.38
2024-03-16T03:02:40.303Z,99350.88
2024-03-16T03:05:12.063Z,99355.13
2024-03-16T03:07:40.178Z,99350.88
2024-03-16T03:10:09.562Z,99355.69
2024-03-16T03:12:37.616Z,99352.50
2024-03-16T03:15:05.758Z,99351.63
2024-03-16T03:17:33.782Z,99352.59
2024-03-16T03:20:01.645Z,99357.69
2024-03-16T03:22:29.564Z,99361.25
2024-03-16T03:24:57.346Z,99352.50
2024-03-16T03:27:25.794Z,99359.72
2024-03-16T03:29:53.565Z,99362.38
2024-03-16T03:32:21.272Z,99365.09
2024-03-16T03:34:49.038Z,99357.56
2024-03-16T03:37:16.811Z,99366.44
2024-03-16T03:39:44.700Z,99371.72
2024-03-16T03:42:12.654Z,99369.63
2024-03-16T03:44:51.059Z,99367.09
2024-03-16T03:47:19.042Z,99373.03
2024-03-16T03:49:51.880Z,99367.28
2024-03-16T03:52:19.891Z,99366.34
2024-03-16T03:54:47.777Z,99370.09
2024-03-16T03:57:15.574Z,99377.00
2024-03-16T03:59:43.823Z,99377.09
2024-03-16T04:02:11.581Z,99382.47
2024-03-16T04:04:41.481Z,99390.09
2024-03-16T04:07:10.094Z,99390.84
2024-03-16T04:09:38.098Z,99388.59
2024-03-16T04:12:06.075Z,99389.16
2024-03-16T04:14:33.819Z,99380.47
2024-03-16T04:17:01.517Z,99385.28
2024-03-16T04:19:29.266Z,99395.41
2024-03-16T04:21:57.238Z,99398.16
2024-03-16T04:24:25.107Z,99399.66
2024-03-16T04:26:52.860Z,99402.41
2024-03-16T04:29:20.626Z,99411.38
2024-03-16T04:31:48.331Z,99403.16
2024-03-16T04:34:16.245Z,99407.69
2024-03-16T04:36:44.065Z,99403.78
2024-03-16T04:39:11.917Z,99410.69
2024-03-16T04:41:39.694Z,99406.06
2024-03-16T04:44:07.453Z,99406.44
2024-03-16T04:46:35.262Z,99416.84
2024-03-16T04:49:03.045Z,99415.88
2024-03-16T04:51:31.346Z,99418.44
2024-03-16T04:53:59.247Z,99421.28
2024-03-16T04:56:26.918Z,99425.69
2024-03-16T04:58:54.802Z,99431.03
2024-03-16T05:01:22.777Z,99429.34
2024-03-16T05:03:51.206Z,99432.94
2024-03-16T05:06:19.023Z,99436.50
2024-03-16T05:08:46.739Z,99440.75
2024-03-16T05:11:14.528Z,99442.66
2024-03-16T05:13:42.965Z,99443.50
2024-03-16T05:16:10.734Z,99441.63
2024-03-16T05:18:38.487Z,99432.94
2024-03-16T05:21:07.631Z,99440.00
2024-03-16T05:23:35.371Z,99439.25
2024-03-16T05:26:03.183Z,99444.53
2024-03-16T05:28:30.978Z,99451.78
2024-03-16T05:30:57.849Z,99450.00
2024-03-16T05:33:25.669Z,99454.34
2024-03-16T05:35:53.463Z,99459.72
2024-03-16T05:38:21.540Z,99457.75
2024-03-16T05:40:49.316Z,99464.91
2024-03-16T05:43:17.200Z,99467.75
2024-03-16T05:45:45.003Z,99469.63
2024-03-16T05:48:13.490Z,99480.19
2024-03-16T05:50:41.205Z,99476.59
2024-03-16T05:53:08.936Z,99486.97
2024-03-16T05:55:36.648Z,99486.22
2024-03-16T05:58:05.050Z,99494.16
2024-03-16T06:00:33.935Z,99492.53
2024-03-16T06:03:01.743Z,99500.66
2024-03-16T06:05:29.541Z,99508.94
2024-03-16T06:07:57.264Z,99517.03
2024-03-16T06:10:25.189Z,99516.84
2024-03-16T06:12:53.042Z,99513.94
2024-03-16T06:15:20.843Z,99529.69
2024-03-16T06:17:48.588Z,99525.09
2024-03-16T06:20:16.487Z,99537.34
2024-03-16T06:22:45.774Z,99535.56
2024-03-16T06:25:14.111Z,99543.56
2024-03-16T06:27:50.409Z,99545.28
2024-03-16T06:30:18.290Z,99540.09
2024-03-16T06:33:06.696Z,99550.66
2024-03-16T06:35:34.654Z,99552.44
2024-03-16T06:38:02.480Z,99560.44
2024-03-16T06:40:30.651Z,99566.75
2024-03-16T06:42:58.440Z,99576.28
2024-03-16T06:45:26.234Z,99571.09
2024-03-16T06:47:53.978Z,99577.31
2024-03-16T06:50:22.363Z,99584.97
2024-03-16T06:52:50.291Z,99586.59
2024-03-16T06:55:19.370Z,99585.75
2024-03-16T06:57:47.523Z,99588.47
2024-03-16T07:00:15.838Z,99599.97
2024-03-16T07:02:43.660Z,99607.50
2024-03-16T07:05:12.285Z,99633.22
2024-03-16T07:07:41.040Z,99635.38
2024-03-16T07:10:09.391Z,99641.97
2024-03-16T07:12:37.367Z,99645.88
2024-03-16T07:15:07.016Z,99660.03
2024-03-16T07:17:34.785Z,99661.22
2024-03-16T07:20:02.607Z,99675.19
2024-03-16T07:22:30.389Z,99680.63
2024-03-16T07:24:57.172Z,99688.53
2024-03-16T07:27:24.907Z,99707.88
2024-03-16T07:29:52.609Z,99715.59
2024-03-16T07:32:20.328Z,99720.78
2024-03-16T07:34:48.060Z,99728.72
2024-03-16T07:37:17.849Z,99738.72
2024-03-16T07:39:45.697Z,99749.44
2024-03-16T07:42:13.420Z,99760.00
2024-03-16T07:44:41.700Z,99752.75
2024-03-16T07:47:09.710Z,99763.66
2024-03-16T07:49:37.622Z,99764.50
2024-03-16T07:52:05.738Z,99781.97
2024-03-16T07:54:33.485Z,99782.28
2024-03-16T07:57:02.075Z,99785.88
2024-03-16T07:59:29.800Z,99796.94
2024-03-16T08:01:57.864Z,99799.84
2024-03-16T08:04:25.567Z,99807.53
2024-03-16T08:06:53.342Z,99809.81
2024-03-16T08:09:24.132Z,99832.56
2024-03-16T08:11:52.627Z,99830.09
2024-03-16T08:14:21.574Z,99829.41
2024-03-16T08:16:49.327Z,99841.00
2024-03-16T08:19:18.003Z,99833.41
2024-03-16T08:21:46.251Z,99843.97
2024-03-16T08:24:14.109Z,99847.28
2024-03-16T08:26:41.935Z,99850.78
2024-03-16T08:29:09.723Z,99853.69
2024-03-16T08:31:37.483Z,99865.88
2024-03-16T08:34:05.532Z,99871.91
2024-03-16T08:36:33.389Z,99872.59
2024-03-16T08:39:04.066Z,99879.59
2024-03-16T08:41:31.853Z,99884.50
2024-03-16T08:43:59.607Z,99887.16
2024-03-16T08:46:28.181Z,99898.47
2024-03-16T08:48:56.216Z,99897.22
2024-03-16T08:51:23.975Z,99896.28
2024-03-16T08:53:51.696Z,99903.38
2024-03-16T08:56:19.474Z,99905.44
2024-03-16T08:58:47.643Z,99910.88
2024-03-16T09:01:15.723Z,99912.75
2024-03-16T09:03:43.538Z,99918.47
2024-03-16T09:06:11.273Z,99926.56
2024-03-16T09:08:39.044Z,99923.84
2024-03-16T09:11:06.853Z,99929.97
2024-03-16T09:13:35.489Z,99936.28
2024-03-16T09:16:06.361Z,99929.00
2024-03-16T09:18:34.729Z,99934.81
2024-03-16T09:21:02.839Z,99948.97
2024-03-16T09:23:30.815Z,99949.81
2024-03-16T09:25:58.592Z,99957.66
2024-03-16T09:28:26.446Z,99958.25
2024-03-16T09:30:56.783Z,99966.66
2024-03-16T09:33:25.429Z,99963.00
2024-03-16T09:35:54.463Z,99971.09
2024-03-16T09:38:24.062Z,99981.59
2024-03-16T09:40:56.446Z,99983.75
